Time;durP1;ratioP1;P1;durP2;ratioP2;P2;SDS_P1;SDS_P2;PMS_P1;PMS_P2;Temp;Humidity;BMP_temperature;BMP_pressure;BME280_temperature;BME280_humidity;BME280_pressure;Samples;Min_cycle;Max_cycle;Signal;HPM_P1;HPM_P2
2024/04/24 00:00:35;;;;;;;13.50;7.82;;;;;;;5.15;78.41;100121.91;5471554;26;20005;-76
2024/04/24 00:03:06;;;;;;;12.23;8.27;;;;;;;5.12;79.77;100123.72;5472068;26;20001;-76
2024/04/24 00:05:36;;;;;;;11.48;8.25;;;;;;;5.21;79.71;100113.91;5445689;26;20303;-78
2024/04/24 00:08:06;;;;;;;12.57;8.55;;;;;;;5.11;80.43;100099.50;5452644;26;20002;-77
2024/04/24 00:10:36;;;;;;;14.63;8.93;;;;;;;5.14;80.41;100099.41;5476308;26;20381;-78
2024/04/24 00:13:07;;;;;;;13.57;9.25;;;;;;;5.07;81.61;100084.88;5451313;26;20500;-77
2024/04/24 00:15:37;;;;;;;12.82;9.55;;;;;;;5.05;81.49;100081.47;5480094;26;20073;-77
2024/04/24 00:18:07;;;;;;;11.38;8.43;;;;;;;5.15;82.26;100080.31;5475580;26;20006;-78
2024/04/24 00:20:38;;;;;;;11.80;8.55;;;;;;;5.15;81.52;100064.72;5479012;26;20001;-78
2024/04/24 00:23:08;;;;;;;11.43;8.80;;;;;;;5.20;81.84;100062.81;5465603;26;20001;-77
2024/04/24 00:25:38;;;;;;;13.75;9.48;;;;;;;4.99;82.65;100068.69;5481396;26;19993;-78
2024/04/24 00:28:09;;;;;;;13.40;8.93;;;;;;;5.14;82.69;100055.22;5462178;26;20026;-78
2024/04/24 00:30:39;;;;;;;13.40;9.30;;;;;;;5.16;82.44;100048.22;5478226;26;20009;-79
2024/04/24 00:33:09;;;;;;;12.40;9.35;;;;;;;5.08;83.13;100049.34;5477079;26;19998;-78
2024/04/24 00:35:40;;;;;;;14.05;9.00;;;;;;;5.09;82.68;100054.47;5463569;26;20012;-78
2024/04/24 00:38:10;;;;;;;12.18;8.93;;;;;;;5.15;82.77;100048.25;5464286;26;20024;-79
2024/04/24 00:40:40;;;;;;;11.20;8.73;;;;;;;5.08;83.31;100046.75;5485816;26;20006;-78
2024/04/24 00:43:10;;;;;;;11.80;8.75;;;;;;;5.13;83.62;100045.72;5467395;26;20477;-77
2024/04/24 00:45:41;;;;;;;13.18;9.20;;;;;;;5.25;83.45;100040.09;5469250;26;20690;-77
2024/04/24 00:48:11;;;;;;;12.52;9.45;;;;;;;5.25;84.31;100029.72;5473806;26;19994;-77
2024/04/24 00:50:43;;;;;;;12.35;9.15;;;;;;;5.07;84.89;100029.47;5444412;26;20001;-77
2024/04/24 00:53:13;;;;;;;14.80;9.77;;;;;;;4.96;84.94;100030.69;5479931;26;20356;-78
2024/04/24 00:55:44;;;;;;;12.68;10.00;;;;;;;4.96;84.38;100022.91;5469094;26;20049;-78
2024/04/24 00:58:16;;;;;;;15.98;10.27;;;;;;;5.12;85.00;100017.16;5471307;26;20021;-77
2024/04/24 01:00:47;;;;;;;14.63;10.15;;;;;;;4.89;85.62;100013.56;5477154;26;20352;-78
2024/04/24 01:03:18;;;;;;;16.08;11.40;;;;;;;4.91;85.35;100003.97;5472725;26;20002;-77
2024/04/24 01:05:48;;;;;;;18.23;11.50;;;;;;;4.97;85.12;99996.00;5471472;26;20006;-78
2024/04/24 01:08:19;;;;;;;15.48;10.98;;;;;;;4.98;86.40;99998.53;5473184;26;20080;-78
2024/04/24 01:10:56;;;;;;;15.45;11.00;;;;;;;5.03;86.84;99989.72;5473447;26;20001;-78
2024/04/24 01:13:27;;;;;;;13.15;10.25;;;;;;;5.04;87.63;99994.00;5482373;26;20024;-77
2024/04/24 01:16:27;;;;;;;15.45;10.70;;;;;;;4.83;88.24;99982.59;5477989;26;20001;-75
2024/04/24 01:19:01;;;;;;;16.92;11.52;;;;;;;4.95;87.26;99972.66;5472387;26;20548;-76
2024/04/24 01:22:19;;;;;;;17.85;11.95;;;;;;;4.84;87.91;99976.50;5473740;26;20041;-75
2024/04/24 01:25:12;;;;;;;17.77;13.38;;;;;;;4.89;87.73;99970.28;5463851;26;20001;-77
2024/04/24 01:27:43;;;;;;;18.73;13.88;;;;;;;4.79;86.33;99963.66;5462887;26;20339;-75
2024/04/24 01:30:13;;;;;;;17.58;13.98;;;;;;;4.83;85.50;99967.00;5480134;26;20096;-77
2024/04/24 01:32:43;;;;;;;23.27;16.15;;;;;;;4.77;86.17;99965.44;5474810;26;20033;-78
2024/04/24 01:35:14;;;;;;;22.02;17.38;;;;;;;4.75;87.02;99969.84;5453469;26;20022;-78
2024/04/24 01:37:44;;;;;;;23.42;17.77;;;;;;;4.80;87.86;99965.34;5472454;26;19998;-78
2024/04/24 01:40:14;;;;;;;24.77;19.20;;;;;;;4.71;89.10;99957.00;5457358;26;19998;-78
2024/04/24 01:42:45;;;;;;;26.45;20.95;;;;;;;4.55;89.59;99953.16;5472667;26;20005;-78
2024/04/24 01:45:15;;;;;;;24.92;20.80;;;;;;;4.53;89.90;99953.22;5472101;26;20461;-78
2024/04/24 01:47:45;;;;;;;29.15;22.77;;;;;;;4.64;90.45;99939.91;5478157;26;20002;-78
2024/04/24 01:50:15;;;;;;;29.40;23.33;;;;;;;4.62;90.71;99945.13;5475662;26;20006;-78
2024/04/24 01:52:46;;;;;;;29.00;22.80;;;;;;;4.68;91.29;99946.69;5466520;26;20002;-78
2024/04/24 01:55:16;;;;;;;29.05;22.95;;;;;;;4.68;91.62;99944.09;5449277;26;20013;-78
2024/04/24 01:57:46;;;;;;;28.70;23.58;;;;;;;4.77;90.55;99936.03;5466808;26;20408;-78
2024/04/24 02:00:17;;;;;;;29.40;23.00;;;;;;;4.70;90.39;99934.50;5473860;26;20014;-78
2024/04/24 02:02:47;;;;;;;29.10;23.98;;;;;;;4.67;91.19;99934.63;5478602;26;20537;-78
2024/04/24 02:05:17;;;;;;;30.50;24.30;;;;;;;4.61;91.09;99943.44;5467164;26;20045;-78
2024/04/24 02:07:48;;;;;;;28.42;22.95;;;;;;;4.73;91.17;99931.81;5478712;26;19997;-77
2024/04/24 02:10:18;;;;;;;29.52;24.60;;;;;;;4.64;90.87;99929.53;5473875;26;20489;-78
2024/04/24 02:12:48;;;;;;;27.63;23.15;;;;;;;4.54;91.70;99928.97;5470688;26;20084;-78
2024/04/24 02:15:18;;;;;;;31.55;23.88;;;;;;;4.56;92.38;99934.09;5469573;26;20420;-78
2024/04/24 02:17:49;;;;;;;32.03;24.83;;;;;;;4.51;91.99;99928.19;5477255;26;19997;-78
2024/04/24 02:20:19;;;;;;;29.33;23.40;;;;;;;4.52;92.10;99932.50;5471791;26;20013;-78
2024/04/24 02:22:49;;;;;;;29.00;24.17;;;;;;;4.61;91.45;99929.63;5473026;26;20013;-78
2024/04/24 02:25:36;;;;;;;30.73;23.02;;;;;;;4.67;91.96;99919.88;5476874;26;20461;-78
2024/04/24 02:28:07;;;;;;;34.42;25.05;;;;;;;4.60;92.33;99918.38;5471893;26;20302;-78
2024/04/24 02:30:37;;;;;;;30.42;25.52;;;;;;;4.47;93.42;99921.41;5472801;26;20009;-78
2024/04/24 02:33:08;;;;;;;31.52;25.73;;;;;;;4.39;94.83;99912.97;5476163;26;20344;-79
2024/04/24 02:35:38;;;;;;;32.95;25.42;;;;;;;4.48;94.91;99905.75;5474899;26;20461;-77
2024/04/24 02:38:08;;;;;;;31.40;25.27;;;;;;;4.43;94.39;99901.63;5452992;26;20540;-78
2024/04/24 02:40:39;;;;;;;32.83;25.85;;;;;;;4.13;95.25;99905.97;5477974;26;20006;-78
2024/04/24 02:43:09;;;;;;;34.70;25.38;;;;;;;4.20;95.89;99898.88;5476382;26;20017;-78
2024/04/24 02:45:39;;;;;;;32.63;26.30;;;;;;;4.26;95.18;99893.50;5464629;26;20016;-77
2024/04/24 02:48:10;;;;;;;36.00;26.85;;;;;;;4.03;95.89;99898.50;5475509;26;20016;-76
2024/04/24 02:50:40;;;;;;;34.85;26.15;;;;;;;3.98;96.03;99896.03;5478359;26;19998;-78
2024/04/24 02:53:10;;;;;;;33.08;25.85;;;;;;;4.19;95.78;99894.56;5478741;26;20305;-75
2024/04/24 02:55:41;;;;;;;35.67;26.73;;;;;;;4.27;95.56;99888.25;5479449;26;20016;-79
2024/04/24 02:58:11;;;;;;;39.88;27.15;;;;;;;3.93;96.02;99887.56;5482282;26;20509;-76
2024/04/24 03:00:41;;;;;;;34.08;26.08;;;;;;;4.18;95.51;99887.69;5488212;26;20445;-78
2024/04/24 03:03:12;;;;;;;33.70;25.63;;;;;;;4.07;95.67;99888.00;5478877;26;19997;-77
2024/04/24 03:05:42;;;;;;;34.28;25.85;;;;;;;3.97;96.08;99893.50;5484235;26;20001;-75
2024/04/24 03:08:12;;;;;;;34.17;26.38;;;;;;;4.06;96.56;99882.84;5475190;26;20103;-77
2024/04/24 03:10:43;;;;;;;33.70;25.73;;;;;;;4.10;96.44;99874.09;5477530;26;19999;-76
2024/04/24 03:13:13;;;;;;;34.10;26.33;;;;;;;4.07;95.21;99866.38;5476900;26;20003;-78
2024/04/24 03:15:43;;;;;;;32.20;24.25;;;;;;;4.09;95.70;99864.63;5476012;26;20342;-75
2024/04/24 03:18:14;;;;;;;35.30;24.85;;;;;;;4.18;95.43;99861.72;5473621;26;20068;-78
2024/04/24 03:20:44;;;;;;;33.00;25.33;;;;;;;4.11;95.54;99866.25;5470267;26;20135;-78
2024/04/24 03:23:14;;;;;;;33.80;25.05;;;;;;;4.10;96.04;99855.94;5473410;26;19997;-78
2024/04/24 03:25:45;;;;;;;33.53;26.40;;;;;;;3.91;97.17;99857.34;5475927;26;20608;-78
2024/04/24 03:28:15;;;;;;;32.45;25.73;;;;;;;4.09;96.97;99846.47;5481442;26;19997;-78
2024/04/24 03:30:45;;;;;;;35.38;26.10;;;;;;;4.12;96.17;99847.19;5481823;26;19993;-78
2024/04/24 03:33:16;;;;;;;34.03;24.80;;;;;;;4.11;95.88;99849.84;5468287;26;20396;-78
2024/04/24 03:35:46;;;;;;;35.83;25.48;;;;;;;4.13;95.96;99842.88;5469367;26;20010;-78
2024/04/24 03:38:17;;;;;;;34.42;25.10;;;;;;;4.08;96.39;99840.41;5473910;26;20476;-77
2024/04/24 03:40:47;;;;;;;32.28;25.77;;;;;;;4.14;96.89;99836.78;5440547;26;20395;-78
2024/04/24 03:46:44;;;;;;;34.30;25.17;;;;;;;3.92;97.33;99833.97;5405107;26;20092;-76
2024/04/24 03:49:14;;;;;;;33.05;25.85;;;;;;;3.98;97.23;99846.75;5453522;26;20013;-78
2024/04/24 03:51:44;;;;;;;30.50;24.23;;;;;;;4.07;97.32;99848.22;5464035;26;20465;-78
2024/04/24 03:54:15;;;;;;;31.70;25.33;;;;;;;4.04;97.07;99831.03;5456443;26;20021;-78
2024/04/24 03:56:45;;;;;;;29.70;23.25;;;;;;;4.03;97.15;99839.69;5460109;26;20001;-78
2024/04/24 03:59:15;;;;;;;33.78;24.55;;;;;;;3.98;97.69;99838.97;5476939;26;19998;-78
2024/04/24 04:01:46;;;;;;;29.83;23.05;;;;;;;4.19;96.71;99832.28;5458912;26;20011;-78
2024/04/24 04:04:16;;;;;;;28.48;22.40;;;;;;;4.21;96.55;99830.50;5467251;26;20460;-78
2024/04/24 04:06:46;;;;;;;28.45;22.05;;;;;;;4.34;94.96;99831.81;5453724;26;20021;-78
2024/04/24 04:09:16;;;;;;;30.20;23.25;;;;;;;4.16;94.99;99832.38;5458730;26;20009;-78
2024/04/24 04:11:47;;;;;;;28.92;22.20;;;;;;;4.22;95.89;99824.41;5473198;26;20358;-78
2024/04/24 04:14:17;;;;;;;28.08;21.75;;;;;;;4.21;96.72;99830.50;5467071;26;20001;-78
2024/04/24 04:16:47;;;;;;;29.40;21.90;;;;;;;4.21;95.71;99833.06;5461835;26;20210;-79
2024/04/24 04:19:17;;;;;;;29.98;22.17;;;;;;;4.05;96.07;99835.31;5442448;26;20002;-78
2024/04/24 04:21:49;;;;;;;27.95;21.10;;;;;;;4.19;97.46;99832.28;5456759;26;20080;-78
2024/04/24 04:24:19;;;;;;;28.00;21.17;;;;;;;4.17;95.57;99827.16;5436146;26;20017;-78
2024/04/24 04:26:49;;;;;;;28.85;21.38;;;;;;;4.17;95.72;99834.06;5454553;26;20001;-78
2024/04/24 04:29:20;;;;;;;29.88;21.23;;;;;;;4.08;96.38;99831.75;5460513;26;20438;-78
2024/04/24 04:31:50;;;;;;;29.05;20.15;;;;;;;4.28;96.14;99822.47;5458686;26;19997;-78
2024/04/24 04:34:20;;;;;;;24.75;19.35;;;;;;;4.09;95.57;99829.13;5469384;26;20028;-79
2024/04/24 04:36:50;;;;;;;28.20;19.58;;;;;;;4.06;96.22;99823.16;5462623;26;20053;-78
2024/04/24 04:39:21;;;;;;;23.60;18.05;;;;;;;4.20;95.67;99821.00;5468672;26;20503;-77
2024/04/24 04:41:51;;;;;;;24.52;18.17;;;;;;;3.99;95.64;99819.06;5460486;26;20700;-78
2024/04/24 04:44:21;;;;;;;25.90;18.25;;;;;;;4.22;95.14;99827.00;5461348;26;19997;-78
2024/04/24 04:46:51;;;;;;;25.67;17.98;;;;;;;4.10;95.65;99822.22;5456841;26;19998;-76
2024/04/24 04:49:22;;;;;;;25.55;16.98;;;;;;;4.14;94.45;99821.22;5456080;26;19995;-78
2024/04/24 04:51:52;;;;;;;22.08;16.15;;;;;;;4.31;94.09;99818.94;5455358;26;20366;-78
2024/04/24 04:54:22;;;;;;;22.85;16.05;;;;;;;4.11;93.22;99819.53;5459487;26;20001;-78
2024/04/24 04:56:53;;;;;;;22.83;15.50;;;;;;;4.17;93.02;99818.50;5465179;26;20665;-77
2024/04/24 04:59:23;;;;;;;25.33;15.93;;;;;;;4.48;93.34;99808.84;5464033;26;20117;-77
2024/04/24 05:01:53;;;;;;;23.27;16.48;;;;;;;4.35;93.40;99808.41;5462797;26;20013;-77
2024/04/24 05:04:24;;;;;;;21.92;15.07;;;;;;;4.58;93.08;99812.81;5457713;26;20376;-78
2024/04/24 05:06:54;;;;;;;23.17;14.95;;;;;;;4.84;92.12;99805.03;5455134;26;20013;-77
2024/04/24 05:09:24;;;;;;;22.88;14.23;;;;;;;5.19;90.82;99795.94;5467090;26;20012;-77
2024/04/24 05:11:55;;;;;;;18.67;13.63;;;;;;;6.51;88.56;99801.25;5469404;26;20360;-78
2024/04/24 05:14:25;;;;;;;18.63;11.73;;;;;;;7.67;82.56;99783.97;5432165;26;20013;-79
2024/04/24 05:16:55;;;;;;;18.05;11.63;;;;;;;7.12;78.62;99789.94;5467139;26;19998;-79
2024/04/24 05:19:26;;;;;;;17.42;11.35;;;;;;;7.81;78.97;99781.59;5460408;26;20038;-77
2024/04/24 05:21:56;;;;;;;14.35;10.30;;;;;;;8.62;76.36;99788.09;5460892;26;20002;-78
2024/04/24 05:24:26;;;;;;;13.57;9.25;;;;;;;9.11;73.81;99786.38;5466942;26;20002;-79
2024/04/24 05:29:46;;;;;;;12.07;9.27;;;;;;;8.72;71.26;99791.03;5471948;26;20048;-78
2024/04/24 05:32:17;;;;;;;12.45;9.82;;;;;;;8.02;74.65;99788.44;5467071;26;20353;-78
2024/04/24 05:34:47;;;;;;;17.30;10.35;;;;;;;7.04;76.55;99790.25;5475569;26;20005;-78
2024/04/24 05:37:17;;;;;;;17.23;10.43;;;;;;;6.40;79.75;99790.41;5460246;26;20500;-78
2024/04/24 05:39:47;;;;;;;14.73;10.35;;;;;;;6.47;80.54;99784.06;5469298;26;20013;-79
2024/04/24 05:42:18;;;;;;;16.23;10.85;;;;;;;6.18;82.09;99786.97;5484912;21;20049;-72
2024/04/24 05:44:48;;;;;;;18.92;10.45;;;;;;;5.75;82.93;99781.69;5492332;26;20032;-72
2024/04/24 05:47:19;;;;;;;16.27;10.18;;;;;;;5.79;83.44;99778.09;5506431;26;20028;-72
2024/04/24 05:49:49;;;;;;;16.30;10.32;;;;;;;6.22;83.42;99777.31;5531509;26;20348;-72
2024/04/24 05:52:19;;;;;;;18.95;10.27;;;;;;;6.46;83.08;99777.13;5524046;26;20390;-72
2024/04/24 05:54:49;;;;;;;16.65;9.43;;;;;;;6.05;84.04;99783.16;5518459;26;20014;-71
2024/04/24 05:57:23;;;;;;;13.55;9.25;;;;;;;6.18;83.81;99784.38;5525619;26;20001;-72
2024/04/24 05:59:53;;;;;;;15.93;9.32;;;;;;;5.99;83.62;99777.34;5531021;26;20013;-71
2024/04/24 06:02:23;;;;;;;16.38;8.82;;;;;;;6.10;83.05;99783.81;5501508;26;20507;-72
2024/04/24 06:04:53;;;;;;;13.73;9.45;;;;;;;5.96;83.49;99786.13;5518016;26;20081;-72
2024/04/24 06:07:24;;;;;;;15.48;8.52;;;;;;;5.75;83.18;99786.06;5522265;26;20022;-72
2024/04/24 06:09:54;;;;;;;16.98;8.77;;;;;;;5.76;83.26;99786.00;5513919;26;20024;-72
2024/04/24 06:12:24;;;;;;;16.20;8.77;;;;;;;5.76;84.26;99778.19;5516499;26;20009;-71
2024/04/24 06:14:55;;;;;;;14.50;8.45;;;;;;;5.77;85.23;99779.88;5516191;26;20009;-72
2024/04/24 06:17:25;;;;;;;15.32;8.65;;;;;;;5.69;85.77;99781.94;5525414;26;20727;-72
2024/04/24 06:19:56;;;;;;;13.75;6.90;;;;;;;5.66;84.52;99776.84;5528030;26;19996;-72
2024/04/24 06:22:26;;;;;;;11.00;4.80;;;;;;;5.55;83.41;99773.81;5500818;26;20547;-73
2024/04/24 06:24:56;;;;;;;11.18;4.68;;;;;;;5.26;84.58;99778.38;5510159;26;20456;-72
2024/04/24 06:27:27;;;;;;;9.93;5.00;;;;;;;5.39;86.33;99793.47;5520273;26;20013;-72
2024/04/24 06:29:57;;;;;;;9.70;3.50;;;;;;;5.33;84.53;99778.09;5508847;26;20471;-72
2024/04/24 06:32:28;;;;;;;9.60;3.75;;;;;;;5.28;84.49;99769.63;5519141;26;20081;-72
2024/04/24 06:34:59;;;;;;;12.30;3.80;;;;;;;5.36;84.81;99771.97;5521901;26;20014;-72
2024/04/24 06:37:29;;;;;;;9.43;3.92;;;;;;;5.09;85.56;99768.56;5512609;26;20005;-71
2024/04/24 06:40:00;;;;;;;8.63;3.50;;;;;;;5.43;86.21;99763.84;5519675;26;20518;-70
2024/04/24 06:42:30;;;;;;;11.20;3.45;;;;;;;5.45;86.23;99764.66;5499802;26;19997;-70
2024/04/24 06:45:00;;;;;;;12.02;3.13;;;;;;;5.40;85.88;99761.38;5515089;26;20398;-71
2024/04/24 06:47:31;;;;;;;8.95;3.50;;;;;;;5.63;85.25;99755.31;5503505;26;20013;-71
2024/04/24 06:50:01;;;;;;;11.82;3.80;;;;;;;5.76;84.15;99756.53;5483107;26;20000;-71
2024/04/24 06:52:31;;;;;;;11.32;4.00;;;;;;;5.76;85.31;99759.97;5520720;26;20081;-72
2024/04/24 06:55:02;;;;;;;10.38;4.35;;;;;;;6.30;84.63;99762.19;5524593;26;20075;-72
2024/04/24 06:57:32;;;;;;;9.45;3.92;;;;;;;6.26;83.50;99756.25;5524349;26;20024;-71
2024/04/24 07:00:03;;;;;;;9.75;4.18;;;;;;;6.26;82.97;99763.25;5515155;26;20008;-70
2024/04/24 07:02:33;;;;;;;10.35;4.40;;;;;;;6.39;81.37;99754.03;5516716;26;19997;-70
2024/04/24 07:05:04;;;;;;;12.48;4.15;;;;;;;6.77;81.41;99746.28;5518992;26;20015;-72
2024/04/24 07:07:35;;;;;;;12.50;4.70;;;;;;;7.40;80.64;99735.63;5490613;26;20012;-71
2024/04/24 07:10:05;;;;;;;12.75;4.30;;;;;;;7.56;77.85;99739.25;5521542;26;20292;-72
2024/04/24 07:12:36;;;;;;;10.43;3.63;;;;;;;7.70;76.31;99731.63;5497213;26;20000;-70
2024/04/24 07:15:06;;;;;;;10.60;3.30;;;;;;;8.83;73.73;99720.69;5519614;26;19997;-72
2024/04/24 07:17:36;;;;;;;10.07;3.70;;;;;;;8.45;73.21;99733.19;5521798;26;20005;-69
2024/04/24 07:20:07;;;;;;;8.52;3.22;;;;;;;8.69;71.86;99724.13;5517033;26;19997;-71
2024/04/24 07:22:37;;;;;;;11.82;3.90;;;;;;;8.37;71.92;99723.09;5521620;26;20721;-72
2024/04/24 07:25:08;;;;;;;12.15;3.65;;;;;;;8.11;73.12;99717.47;5520046;26;20268;-72
2024/04/24 07:27:38;;;;;;;8.88;3.65;;;;;;;10.63;69.26;99706.25;5521952;26;19997;-72
2024/04/24 07:30:08;;;;;;;7.85;3.55;;;;;;;10.28;67.46;99708.34;5527227;26;20016;-72
2024/04/24 07:32:39;;;;;;;10.23;3.92;;;;;;;9.18;69.66;99711.88;5526711;26;19996;-72
2024/04/24 07:35:09;;;;;;;11.80;4.00;;;;;;;8.62;71.92;99701.81;5515803;26;20448;-70
2024/04/24 07:37:40;;;;;;;10.07;3.88;;;;;;;8.19;73.34;99710.13;5496741;26;20004;-73
2024/04/24 07:40:10;;;;;;;11.57;4.03;;;;;;;8.03;74.73;99703.94;5510996;26;20460;-70
2024/04/24 07:42:42;;;;;;;9.88;3.47;;;;;;;7.73;73.74;99706.22;5527031;26;20355;-72
2024/04/24 07:45:12;;;;;;;12.32;3.90;;;;;;;7.17;76.41;99705.38;5525738;26;20017;-71
2024/04/24 07:47:42;;;;;;;14.43;3.92;;;;;;;6.70;78.37;99718.81;5496027;26;20153;-70
2024/04/24 07:50:13;;;;;;;9.95;3.40;;;;;;;6.86;78.88;99712.00;5531796;26;20001;-72
2024/04/24 07:52:43;;;;;;;12.93;3.40;;;;;;;6.61;78.01;99718.34;5511911;26;20010;-70
2024/04/24 07:55:13;;;;;;;10.48;3.40;;;;;;;6.39;78.56;99725.38;5531324;26;20016;-72
2024/04/24 07:57:44;;;;;;;8.68;2.58;;;;;;;5.97;78.87;99725.38;5527884;26;19997;-71
2024/04/24 08:00:14;;;;;;;7.90;2.53;;;;;;;5.65;79.47;99712.72;5510599;26;20016;-72
2024/04/24 08:02:45;;;;;;;11.77;2.72;;;;;;;5.56;80.76;99717.44;5526680;26;20085;-72
2024/04/24 08:05:15;;;;;;;9.88;3.00;;;;;;;5.66;81.40;99716.16;5508755;26;20037;-71
2024/04/24 08:07:45;;;;;;;8.95;2.67;;;;;;;5.63;82.38;99714.56;5489001;26;20334;-72
2024/04/24 08:10:16;;;;;;;9.93;2.53;;;;;;;5.66;82.32;99706.63;5516242;26;20335;-72
2024/04/24 08:12:46;;;;;;;13.43;2.58;;;;;;;5.41;83.90;99708.44;5536780;26;20001;-72
2024/04/24 08:15:16;;;;;;;9.93;2.70;;;;;;;5.81;83.53;99706.03;5519531;26;20002;-71
2024/04/24 08:17:47;;;;;;;12.45;2.72;;;;;;;6.38;81.55;99703.69;5519153;26;20005;-73
2024/04/24 08:20:18;;;;;;;9.55;2.72;;;;;;;8.49;78.04;99693.75;5530280;26;20012;-71
2024/04/24 08:22:48;;;;;;;7.13;2.28;;;;;;;9.71;71.44;99683.69;5521092;26;20037;-72
2024/04/24 08:25:18;;;;;;;8.13;2.33;;;;;;;13.23;64.86;99669.06;5513881;26;19998;-73
2024/04/24 08:27:52;;;;;;;8.88;2.50;;;;;;;13.59;59.80;99664.66;5497951;26;20349;-73
2024/04/24 08:30:23;;;;;;;5.72;1.92;;;;;;;16.60;57.31;99649.53;5527056;26;20007;-72
2024/04/24 08:32:54;;;;;;;7.22;2.42;;;;;;;15.48;55.00;99650.13;5524830;26;20480;-73
2024/04/24 08:35:24;;;;;;;6.75;2.03;;;;;;;14.27;56.43;99657.84;5526692;26;20016;-73
2024/04/24 08:37:54;;;;;;;6.43;1.90;;;;;;;12.74;56.90;99671.56;5528241;26;20023;-70
2024/04/24 08:40:25;;;;;;;9.18;2.10;;;;;;;11.38;58.87;99674.50;5529313;26;20352;-72
2024/04/24 08:42:55;;;;;;;6.82;1.88;;;;;;;10.36;61.05;99675.53;5528974;26;19996;-72
2024/04/24 08:45:27;;;;;;;6.72;1.80;;;;;;;9.93;62.90;99672.81;5520474;26;19996;-72
2024/04/24 08:47:59;;;;;;;12.15;1.88;;;;;;;9.17;64.67;99672.72;5531688;26;20014;-73
2024/04/24 08:50:30;;;;;;;12.15;2.10;;;;;;;9.12;66.35;99675.56;5532142;26;20023;-73
2024/04/24 08:53:02;;;;;;;8.35;2.13;;;;;;;8.03;68.61;99677.84;5534773;26;19996;-72
2024/04/24 08:55:35;;;;;;;12.50;2.20;;;;;;;7.62;71.27;99682.38;5535229;26;20454;-72
2024/04/24 08:58:06;;;;;;;5.82;2.10;;;;;;;9.21;69.17;99669.88;5524861;26;20577;-72
2024/04/24 09:00:38;;;;;;;7.72;1.90;;;;;;;11.95;62.67;99657.72;5532283;26;20014;-72
2024/04/24 09:03:16;;;;;;;9.60;1.80;;;;;;;14.02;56.84;99639.50;5522631;26;20440;-72
2024/04/24 09:05:49;;;;;;;5.68;1.40;;;;;;;15.33;53.48;99632.88;5529647;26;20008;-72
2024/04/24 09:08:20;;;;;;;6.28;1.60;;;;;;;15.77;53.34;99631.00;5530089;26;20037;-72
2024/04/24 09:10:52;;;;;;;8.98;2.20;;;;;;;15.17;54.52;99640.31;5525392;26;19997;-73
2024/04/24 09:13:24;;;;;;;9.57;4.32;;;;;;;15.02;55.73;99647.59;5526832;26;20036;-73
2024/04/24 09:15:57;;;;;;;6.90;1.92;;;;;;;13.25;55.24;99656.63;5532875;26;20455;-72
2024/04/24 09:18:27;;;;;;;7.82;1.80;;;;;;;12.31;56.82;99652.69;5533797;26;20104;-73
2024/04/24 09:20:59;;;;;;;6.28;1.80;;;;;;;11.92;60.16;99650.03;5528142;26;20008;-73
2024/04/24 09:23:29;;;;;;;8.10;2.00;;;;;;;11.24;60.80;99651.75;5526622;26;19993;-72
2024/04/24 09:26:00;;;;;;;8.50;2.00;;;;;;;10.50;62.91;99662.44;5525145;26;20455;-72
2024/04/24 09:28:30;;;;;;;9.48;2.20;;;;;;;9.92;63.42;99658.91;5534027;26;20521;-70
2024/04/24 09:31:03;;;;;;;7.85;1.98;;;;;;;10.03;63.34;99653.88;5529303;26;20011;-72
2024/04/24 09:33:33;;;;;;;9.55;1.80;;;;;;;9.59;64.61;99654.69;5525619;26;20037;-71
2024/04/24 09:36:04;;;;;;;8.15;1.80;;;;;;;9.82;65.23;99655.09;5522750;26;20467;-72
2024/04/24 09:38:34;;;;;;;7.95;1.75;;;;;;;9.64;65.52;99656.13;5491850;26;20005;-73
2024/04/24 09:41:05;;;;;;;10.57;1.70;;;;;;;9.32;67.41;99657.06;5522598;26;20119;-70
2024/04/24 09:43:36;;;;;;;7.38;1.75;;;;;;;9.18;65.98;99658.72;5526420;26;20357;-72
2024/04/24 09:46:06;;;;;;;10.70;1.70;;;;;;;9.02;67.80;99663.06;5522832;26;20013;-72
2024/04/24 09:48:36;;;;;;;8.30;1.60;;;;;;;9.01;68.34;99661.38;5497219;26;20001;-72
2024/04/24 09:51:09;;;;;;;6.55;1.63;;;;;;;8.95;68.14;99662.53;5522453;26;20463;-72
2024/04/24 09:53:39;;;;;;;6.78;1.33;;;;;;;8.81;68.97;99664.19;5517083;26;20001;-73
2024/04/24 09:56:20;;;;;;;7.15;1.60;;;;;;;9.26;67.53;99653.91;5527599;26;20342;-71
2024/04/24 09:58:54;;;;;;;6.38;1.13;;;;;;;9.51;64.31;99652.50;5495990;26;20008;-73
2024/04/24 10:01:26;;;;;;;7.15;1.23;;;;;;;9.90;64.60;99646.81;5522507;26;20012;-72
2024/04/24 10:04:01;;;;;;;4.68;1.38;;;;;;;10.51;63.72;99635.28;5526529;26;19996;-72
2024/04/24 10:06:35;;;;;;;5.43;1.27;;;;;;;10.59;61.57;99635.69;5520779;26;20081;-72
2024/04/24 10:09:05;;;;;;;5.13;1.55;;;;;;;10.61;62.48;99639.06;5518570;26;19997;-72
2024/04/24 10:11:43;;;;;;;5.50;1.38;;;;;;;10.54;63.06;99632.47;5523813;26;20008;-71
2024/04/24 10:14:18;;;;;;;6.85;1.40;;;;;;;10.15;62.31;99647.13;5529191;26;20012;-72
2024/04/24 10:16:50;;;;;;;6.50;1.52;;;;;;;10.03;63.16;99643.41;5517094;26;20012;-72
2024/04/24 10:19:21;;;;;;;7.68;0.95;;;;;;;9.90;63.72;99650.28;5530959;26;20012;-72
2024/04/24 10:21:53;;;;;;;7.68;1.30;;;;;;;9.90;63.54;99647.66;5520597;26;20447;-72
2024/04/24 10:24:24;;;;;;;6.47;1.20;;;;;;;9.46;64.31;99649.31;5517376;26;20007;-73
2024/04/24 10:26:56;;;;;;;7.25;1.52;;;;;;;9.57;64.70;99641.72;5532559;26;20009;-72
2024/04/24 10:29:28;;;;;;;6.20;1.50;;;;;;;9.57;65.36;99644.31;5490896;26;20016;-72
2024/04/24 10:32:01;;;;;;;6.35;1.60;;;;;;;9.38;65.74;99646.28;5494079;26;20004;-72
2024/04/24 10:34:32;;;;;;;9.18;1.65;;;;;;;8.75;67.91;99647.06;5520199;26;20078;-73
2024/04/24 10:37:03;;;;;;;8.13;2.70;;;;;;;8.87;70.86;99653.41;5496925;26;20012;-73
2024/04/24 10:39:41;;;;;;;7.68;1.85;;;;;;;8.92;69.17;99647.00;5531428;26;20014;-73
2024/04/24 10:42:12;;;;;;;9.60;1.85;;;;;;;9.40;69.84;99648.78;5498024;26;20026;-72
2024/04/24 10:44:46;;;;;;;5.45;1.38;;;;;;;8.90;69.69;99650.63;5525842;26;20243;-70
2024/04/24 10:47:17;;;;;;;6.55;1.88;;;;;;;9.02;69.77;99653.47;5503868;26;20308;-69
2024/04/24 10:49:55;;;;;;;3.92;1.00;;;;;;;8.77;69.54;99650.44;5523787;26;20076;-72
2024/04/24 10:52:26;;;;;;;2.83;0.70;;;;;;;8.76;70.58;99650.50;5521817;26;20004;-72
2024/04/24 10:55:06;;;;;;;1.50;0.50;;;;;;;8.41;71.10;99648.03;5491845;26;20009;-71
2024/04/24 10:57:36;;;;;;;1.20;0.50;;;;;;;8.15;72.20;99638.88;5499542;26;20065;-71
2024/04/24 11:00:17;;;;;;;1.02;0.60;;;;;;;8.08;74.90;99641.88;5526061;26;20417;-72
2024/04/24 11:02:50;;;;;;;1.40;0.60;;;;;;;8.64;72.63;99634.63;5497143;26;19996;-72
2024/04/24 11:05:21;;;;;;;4.18;0.73;;;;;;;8.82;75.09;99624.88;5525125;26;20555;-72
2024/04/24 11:07:58;;;;;;;4.38;0.90;;;;;;;9.07;73.89;99617.44;5526304;26;20004;-72
2024/04/24 11:10:30;;;;;;;3.38;1.23;;;;;;;9.22;72.21;99618.34;5535011;26;20443;-70
2024/04/24 11:13:02;;;;;;;5.35;1.50;;;;;;;9.35;72.67;99614.19;5532120;26;20009;-73
2024/04/24 11:15:35;;;;;;;5.10;1.40;;;;;;;9.06;71.60;99609.66;5532823;26;20111;-73
2024/04/24 11:18:05;;;;;;;4.00;1.30;;;;;;;9.20;72.19;99594.91;5531229;26;20006;-72
2024/04/24 11:20:37;;;;;;;6.07;1.65;;;;;;;9.35;72.25;99591.47;5525312;26;20024;-73
2024/04/24 11:23:11;;;;;;;8.05;1.73;;;;;;;9.70;71.40;99585.13;5519341;26;19997;-72
2024/04/24 11:25:51;;;;;;;4.75;1.52;;;;;;;10.10;72.75;99592.34;5521912;26;20064;-72
2024/04/24 11:28:24;;;;;;;10.57;1.73;;;;;;;10.50;70.40;99581.16;5524083;26;20000;-73
2024/04/24 11:30:55;;;;;;;7.68;1.65;;;;;;;10.04;68.18;99589.22;5525072;26;20033;-72
2024/04/24 11:33:26;;;;;;;4.22;1.17;;;;;;;9.47;68.07;99593.41;5521714;26;20031;-71
2024/04/24 11:35:56;;;;;;;4.07;1.10;;;;;;;9.46;69.45;99585.66;5523372;26;19997;-71
2024/04/24 11:38:29;;;;;;;3.72;0.95;;;;;;;8.88;68.77;99592.34;5493844;26;20042;-71
2024/04/24 11:40:59;;;;;;;2.90;0.88;;;;;;;8.50;70.64;99597.88;5518643;26;20008;-71
2024/04/24 11:43:30;;;;;;;2.40;0.90;;;;;;;8.32;72.51;99598.84;5540760;21;20011;-78
2024/04/24 11:46:00;;;;;;;2.80;0.80;;;;;;;8.10;73.99;99595.63;5529069;26;20000;-76
2024/04/24 11:48:30;;;;;;;3.65;1.00;;;;;;;8.18;73.98;99596.94;5534464;26;20000;-78
2024/04/24 11:51:01;;;;;;;2.03;0.77;;;;;;;8.20;73.13;99597.69;5530486;26;20455;-77
2024/04/24 11:53:31;;;;;;;2.20;0.80;;;;;;;8.25;72.77;99597.47;5526255;26;20007;-77
2024/04/24 11:56:03;;;;;;;3.35;0.70;;;;;;;8.30;73.56;99608.53;5529431;26;20464;-77